Time;durP1;ratioP1;P1;durP2;ratioP2;P2;SDS_P1;SDS_P2;PMS_P1;PMS_P2;Temp;Humidity;BMP_temperature;BMP_pressure;BME280_temperature;BME280_humidity;BME280_pressure;Samples;Min_cycle;Max_cycle;Signal;HPM_P1;HPM_P2
2022/08/16 00:00:28;;;;;;;20.50;18.45;;;19.70;99.90;;;;;;5041469;28;47264;-83
2022/08/16 00:02:56;;;;;;;20.17;18.17;;;19.70;99.90;;;;;;5041758;28;38160;-83
2022/08/16 00:05:24;;;;;;;19.80;17.77;;;19.70;99.90;;;;;;5040090;28;39176;-82
2022/08/16 00:07:51;;;;;;;21.40;17.83;;;19.70;99.90;;;;;;5037704;28;39231;-81
2022/08/16 00:10:19;;;;;;;21.08;18.40;;;19.60;99.90;;;;;;5035740;28;40064;-80
2022/08/16 00:12:46;;;;;;;19.40;17.38;;;19.70;99.90;;;;;;5042361;28;35953;-82
2022/08/16 00:15:25;;;;;;;20.90;18.70;;;19.80;99.90;;;;;;5042900;28;39711;-81
2022/08/16 00:17:51;;;;;;;21.05;18.95;;;19.80;99.90;;;;;;5038470;27;38141;-81
2022/08/16 00:20:20;;;;;;;21.77;19.65;;;19.80;99.90;;;;;;5070252;28;38504;-81
2022/08/16 00:22:46;;;;;;;21.55;19.40;;;19.80;99.90;;;;;;5039600;28;38218;-81
2022/08/16 00:25:14;;;;;;;21.42;19.33;;;19.90;99.90;;;;;;5070350;27;39164;-82
2022/08/16 00:27:41;;;;;;;22.52;19.83;;;19.90;99.90;;;;;;5053220;28;39025;-82
2022/08/16 00:30:10;;;;;;;22.13;19.92;;;19.90;99.90;;;;;;5070925;28;38312;-80
2022/08/16 00:32:39;;;;;;;22.58;19.55;;;19.90;99.90;;;;;;5039469;27;38370;-81
2022/08/16 00:35:09;;;;;;;21.73;19.52;;;19.90;99.90;;;;;;5044692;28;38449;-79
2022/08/16 00:37:35;;;;;;;23.00;20.60;;;19.90;99.90;;;;;;5070045;28;37694;-81
2022/08/16 00:40:02;;;;;;;22.23;19.88;;;19.90;99.90;;;;;;5036580;28;39106;-80
2022/08/16 00:42:30;;;;;;;22.30;20.13;;;19.90;99.90;;;;;;5046807;28;47049;-81
2022/08/16 00:45:06;;;;;;;23.67;20.95;;;19.90;99.90;;;;;;5048684;27;39881;-81
2022/08/16 00:47:34;;;;;;;22.48;20.08;;;19.80;99.90;;;;;;5069705;28;47051;-81
2022/08/16 00:50:00;;;;;;;21.83;19.58;;;19.80;99.90;;;;;;5038949;28;38538;-82
2022/08/16 00:52:26;;;;;;;24.48;19.35;;;19.80;99.90;;;;;;5031699;28;38004;-82
2022/08/16 00:54:52;;;;;;;20.40;18.40;;;19.80;99.90;;;;;;5038948;28;38963;-81
2022/08/16 00:57:21;;;;;;;20.70;18.70;;;19.80;99.90;;;;;;5038827;28;40077;-81
2022/08/16 00:59:47;;;;;;;22.73;20.40;;;19.80;99.90;;;;;;5047037;27;39039;-82
2022/08/16 01:02:13;;;;;;;23.33;20.92;;;19.80;99.90;;;;;;5071958;27;35866;-83
2022/08/16 01:04:39;;;;;;;21.83;19.58;;;19.70;99.90;;;;;;5042085;28;39097;-83
2022/08/16 01:07:08;;;;;;;22.17;19.70;;;19.70;99.90;;;;;;5039941;28;40255;-84
2022/08/16 01:09:37;;;;;;;22.48;20.20;;;19.70;99.90;;;;;;5053617;28;38774;-83
2022/08/16 01:12:07;;;;;;;22.05;19.73;;;19.70;99.90;;;;;;5039052;28;38547;-83
2022/08/16 01:14:42;;;;;;;22.25;20.05;;;19.70;99.90;;;;;;5046207;28;39253;-82
2022/08/16 01:17:11;;;;;;;22.52;20.17;;;19.60;99.90;;;;;;5046298;27;39263;-80
2022/08/16 01:19:45;;;;;;;22.05;19.65;;;19.50;99.90;;;;;;5040319;28;37737;-82
2022/08/16 01:22:23;;;;;;;23.17;20.83;;;19.50;99.90;;;;;;5036653;28;38031;-84
2022/08/16 01:24:54;;;;;;;22.45;20.20;;;19.40;99.90;;;;;;5069768;28;39684;-85
2022/08/16 01:27:27;;;;;;;21.45;19.35;;;19.30;99.90;;;;;;5072381;28;39127;-85
2022/08/16 01:30:05;;;;;;;23.65;21.27;;;19.30;99.90;;;;;;5036087;28;39593;-85
2022/08/16 01:32:34;;;;;;;24.58;22.08;;;19.20;99.90;;;;;;5041094;28;48660;-85
2022/08/16 01:35:06;;;;;;;24.80;22.15;;;19.20;99.90;;;;;;5035192;28;39040;-85
2022/08/16 01:37:51;;;;;;;25.80;23.20;;;19.20;99.90;;;;;;5068786;28;48348;-84
2022/08/16 01:40:20;;;;;;;25.23;22.88;;;19.20;99.90;;;;;;5039790;28;39724;-85
2022/08/16 01:42:48;;;;;;;25.95;23.55;;;19.20;99.90;;;;;;5075783;28;38159;-86
2022/08/16 01:45:16;;;;;;;25.80;23.33;;;19.10;99.90;;;;;;5040947;28;40623;-82
2022/08/16 01:47:44;;;;;;;24.48;21.98;;;19.20;99.90;;;;;;5038808;28;39015;-86
2022/08/16 01:50:11;;;;;;;24.52;22.13;;;19.10;99.90;;;;;;5035954;28;38834;-86
2022/08/16 01:52:38;;;;;;;26.38;23.85;;;19.10;99.90;;;;;;5036070;28;37093;-85
2022/08/16 01:55:06;;;;;;;25.40;22.92;;;19.00;99.90;;;;;;5042796;28;40402;-85
2022/08/16 01:57:32;;;;;;;28.17;25.20;;;19.00;99.90;;;;;;5047293;28;40284;-85
2022/08/16 01:59:59;;;;;;;30.50;26.50;;;19.00;99.90;;;;;;5042701;28;36722;-83
2022/08/16 02:02:26;;;;;;;32.75;29.25;;;19.10;99.90;;;;;;5042821;27;38715;-86
2022/08/16 02:04:52;;;;;;;29.92;26.75;;;19.10;99.90;;;;;;5046669;27;38912;-84
2022/08/16 02:07:19;;;;;;;28.63;25.83;;;19.10;99.90;;;;;;5080735;28;39012;-84
2022/08/16 02:09:47;;;;;;;27.23;24.55;;;19.00;99.90;;;;;;5044874;28;38976;-85
2022/08/16 02:12:15;;;;;;;30.10;27.10;;;19.10;99.90;;;;;;5043065;28;36560;-84
2022/08/16 02:14:41;;;;;;;30.20;27.17;;;19.00;99.90;;;;;;5046527;28;40433;-82
2022/08/16 02:17:10;;;;;;;32.25;28.88;;;19.00;99.90;;;;;;5048562;28;36862;-82
2022/08/16 02:19:40;;;;;;;32.47;29.17;;;19.10;99.90;;;;;;5076272;28;37896;-82
2022/08/16 02:22:12;;;;;;;36.70;32.70;;;19.10;99.90;;;;;;5059459;28;38303;-81
2022/08/16 02:24:40;;;;;;;30.20;27.23;;;19.10;99.90;;;;;;5042709;28;40012;-83
2022/08/16 02:27:06;;;;;;;35.20;30.08;;;19.10;99.90;;;;;;5074248;28;39803;-83
2022/08/16 02:29:32;;;;;;;34.10;30.65;;;19.10;99.90;;;;;;5044480;28;37869;-84
2022/08/16 02:31:58;;;;;;;35.25;31.77;;;19.00;99.90;;;;;;5037843;28;38206;-82
2022/08/16 02:34:25;;;;;;;34.97;31.38;;;19.00;99.90;;;;;;5049144;28;40443;-82
2022/08/16 02:36:51;;;;;;;35.60;30.58;;;19.00;99.90;;;;;;5072406;28;38835;-85
2022/08/16 02:39:18;;;;;;;36.17;32.33;;;19.00;99.90;;;;;;5042921;28;39072;-84
2022/08/16 02:41:47;;;;;;;34.30;30.75;;;19.00;99.90;;;;;;5040331;28;39072;-83
2022/08/16 02:44:19;;;;;;;35.22;31.02;;;19.00;99.90;;;;;;5046183;27;39732;-83
2022/08/16 02:46:45;;;;;;;32.28;28.85;;;19.00;99.90;;;;;;5076504;28;38770;-86
2022/08/16 02:49:12;;;;;;;33.63;29.80;;;19.00;99.90;;;;;;5044954;28;38767;-85
2022/08/16 02:51:39;;;;;;;31.08;27.88;;;18.90;99.90;;;;;;5076033;28;37695;-86
2022/08/16 02:54:06;;;;;;;30.67;27.55;;;18.90;99.90;;;;;;5043345;28;39620;-84
2022/08/16 02:56:33;;;;;;;32.50;29.30;;;18.90;99.90;;;;;;5043029;27;39278;-87
2022/08/16 02:58:59;;;;;;;31.85;28.60;;;18.90;99.90;;;;;;5072783;28;39648;-87
2022/08/16 03:01:30;;;;;;;37.95;33.22;;;18.80;99.90;;;;;;5044546;28;37381;-86
2022/08/16 03:03:58;;;;;;;33.97;29.85;;;18.80;99.90;;;;;;5044205;28;39795;-84
2022/08/16 03:06:26;;;;;;;36.53;32.25;;;18.70;99.90;;;;;;5069884;27;38276;-83
2022/08/16 03:08:52;;;;;;;39.55;34.33;;;18.70;99.90;;;;;;5039568;28;37714;-85
2022/08/16 03:11:19;;;;;;;39.20;32.88;;;18.70;99.90;;;;;;5043216;28;38069;-84
2022/08/16 03:13:48;;;;;;;38.92;34.97;;;18.60;99.90;;;;;;5040537;28;38866;-84
2022/08/16 03:16:15;;;;;;;39.92;35.58;;;18.60;99.90;;;;;;5043846;27;37592;-85
2022/08/16 03:18:42;;;;;;;40.17;34.38;;;18.60;99.90;;;;;;5043857;28;38803;-83
2022/08/16 03:21:08;;;;;;;37.75;33.90;;;18.60;99.90;;;;;;5036424;28;38413;-83
2022/08/16 03:23:35;;;;;;;39.08;34.90;;;18.60;99.90;;;;;;5037462;28;39685;-86
2022/08/16 03:26:01;;;;;;;40.65;36.30;;;18.60;99.90;;;;;;5044231;28;39538;-87
2022/08/16 03:28:27;;;;;;;39.35;35.17;;;18.60;99.90;;;;;;5039938;28;49203;-86
2022/08/16 03:30:53;;;;;;;38.45;34.65;;;18.50;99.90;;;;;;5077053;28;38925;-85
2022/08/16 03:33:19;;;;;;;40.58;36.22;;;18.50;99.90;;;;;;5046302;28;40311;-86
2022/08/16 03:35:46;;;;;;;39.92;35.80;;;18.50;99.90;;;;;;5039540;28;38453;-86
2022/08/16 03:38:14;;;;;;;39.72;35.55;;;18.50;99.90;;;;;;5075315;27;38125;-85
2022/08/16 03:40:41;;;;;;;39.53;35.53;;;18.50;99.90;;;;;;5049243;28;38840;-86
2022/08/16 03:43:10;;;;;;;46.70;41.70;;;18.50;99.90;;;;;;5040673;28;39991;-86
2022/08/16 03:45:38;;;;;;;43.65;37.88;;;18.50;99.90;;;;;;5041693;28;38575;-87
2022/08/16 03:48:08;;;;;;;43.97;38.67;;;18.50;99.90;;;;;;5041022;28;37658;-86
2022/08/16 03:50:35;;;;;;;46.35;41.15;;;18.40;99.90;;;;;;5041913;28;37602;-87
2022/08/16 03:53:03;;;;;;;44.90;39.03;;;18.40;99.90;;;;;;5040039;28;39687;-85
2022/08/16 03:55:30;;;;;;;46.55;39.92;;;18.40;99.90;;;;;;5043058;28;37854;-87
2022/08/16 03:57:56;;;;;;;44.72;39.97;;;18.40;99.90;;;;;;5040636;28;38998;-87
2022/08/16 04:00:26;;;;;;;46.83;40.42;;;18.30;99.90;;;;;;5073629;28;38075;-86
2022/08/16 04:02:55;;;;;;;47.83;42.65;;;18.30;99.90;;;;;;5044088;28;38723;-86
2022/08/16 04:05:22;;;;;;;43.80;39.20;;;18.30;99.90;;;;;;5045438;27;38337;-86
2022/08/16 04:07:48;;;;;;;46.70;38.33;;;18.30;99.90;;;;;;5046031;28;38903;-85
2022/08/16 04:10:15;;;;;;;44.72;39.55;;;18.30;99.90;;;;;;5040722;28;37716;-85
2022/08/16 04:12:43;;;;;;;47.25;42.08;;;18.30;99.90;;;;;;5043007;28;37540;-85
2022/08/16 04:15:12;;;;;;;45.88;40.97;;;18.20;99.90;;;;;;5045570;28;38626;-85
2022/08/16 04:17:38;;;;;;;49.08;42.00;;;18.20;99.90;;;;;;5050784;28;39632;-85
2022/08/16 04:20:07;;;;;;;49.08;43.65;;;18.20;99.90;;;;;;5066230;28;37726;-84
2022/08/16 04:22:35;;;;;;;48.90;41.47;;;18.20;99.90;;;;;;5054167;28;40573;-85
2022/08/16 04:25:01;;;;;;;45.58;40.60;;;18.20;99.90;;;;;;5052085;28;39086;-85
2022/08/16 04:27:27;;;;;;;45.40;40.55;;;18.20;99.90;;;;;;5043393;28;39522;-85
2022/08/16 04:29:53;;;;;;;46.33;41.28;;;18.20;99.90;;;;;;5074100;27;36651;-85
2022/08/16 04:32:19;;;;;;;51.28;45.25;;;18.20;99.90;;;;;;5050424;27;38413;-86
2022/08/16 04:34:46;;;;;;;48.05;42.17;;;18.20;99.90;;;;;;5043885;28;39300;-85
2022/08/16 04:37:12;;;;;;;44.67;39.00;;;18.20;99.90;;;;;;5044733;27;38876;-85
2022/08/16 04:39:38;;;;;;;46.75;41.65;;;18.20;99.90;;;;;;5040381;28;36966;-84
2022/08/16 04:42:05;;;;;;;49.38;42.83;;;18.20;99.90;;;;;;5042431;28;37584;-84
2022/08/16 04:44:31;;;;;;;48.28;42.17;;;18.20;99.90;;;;;;5041324;28;38297;-85
2022/08/16 04:46:58;;;;;;;47.85;42.65;;;18.20;99.90;;;;;;5041431;28;39457;-84
2022/08/16 04:49:24;;;;;;;46.78;41.55;;;18.10;99.90;;;;;;5038526;28;37424;-84
2022/08/16 04:51:51;;;;;;;43.17;38.53;;;18.00;99.90;;;;;;5071174;28;39231;-85
2022/08/16 04:54:18;;;;;;;48.25;42.58;;;18.00;99.90;;;;;;5074076;28;40022;-84
2022/08/16 04:56:44;;;;;;;43.80;39.08;;;18.10;99.90;;;;;;5044134;28;39402;-84
2022/08/16 04:59:10;;;;;;;45.92;40.00;;;18.10;99.90;;;;;;5034175;28;38195;-85
2022/08/16 05:01:37;;;;;;;44.38;39.65;;;18.10;99.90;;;;;;5040093;28;42007;-86
2022/08/16 05:04:06;;;;;;;46.08;40.50;;;18.10;99.90;;;;;;5043101;28;40303;-86
2022/08/16 05:06:32;;;;;;;45.38;40.50;;;18.10;99.90;;;;;;5042639;28;39023;-85
2022/08/16 05:08:58;;;;;;;42.20;37.70;;;18.10;99.90;;;;;;5037470;28;39528;-86
2022/08/16 05:11:28;;;;;;;30.08;26.67;;;18.10;99.90;;;;;;5037080;28;39666;-86
2022/08/16 05:13:55;;;;;;;44.55;39.20;;;18.20;99.90;;;;;;5035530;28;38217;-83
2022/08/16 05:16:24;;;;;;;42.70;38.20;;;18.40;99.90;;;;;;5037774;28;37406;-84
2022/08/16 05:18:51;;;;;;;41.92;37.53;;;18.50;99.90;;;;;;5043102;28;38228;-85
2022/08/16 05:21:18;;;;;;;40.28;36.08;;;18.40;99.90;;;;;;5038656;28;39602;-84
2022/08/16 05:23:44;;;;;;;45.45;40.28;;;18.50;99.90;;;;;;5038540;28;39934;-82
2022/08/16 05:26:11;;;;;;;39.42;35.22;;;18.50;99.90;;;;;;5032438;28;40078;-84
2022/08/16 05:28:40;;;;;;;39.63;35.50;;;18.60;99.90;;;;;;5050414;28;38426;-84
2022/08/16 05:31:06;;;;;;;39.60;35.58;;;18.60;99.90;;;;;;5041611;28;39123;-84
2022/08/16 05:33:33;;;;;;;41.78;37.33;;;18.60;99.90;;;;;;5037700;28;39110;-83
2022/08/16 05:35:59;;;;;;;42.67;38.15;;;18.70;99.90;;;;;;5039688;28;38936;-82
2022/08/16 05:38:28;;;;;;;37.67;33.67;;;18.70;99.90;;;;;;5036885;28;37775;-83
2022/08/16 05:40:58;;;;;;;39.58;35.58;;;18.70;99.90;;;;;;5068289;28;37852;-83
2022/08/16 05:43:25;;;;;;;37.97;33.70;;;18.80;99.90;;;;;;5046465;27;38781;-84
2022/08/16 05:45:52;;;;;;;37.42;33.40;;;18.90;99.90;;;;;;5041168;28;38630;-83
2022/08/16 05:48:18;;;;;;;35.65;31.85;;;18.90;99.90;;;;;;5036148;28;37512;-83
2022/08/16 05:50:45;;;;;;;45.58;39.95;;;19.00;99.90;;;;;;5042645;28;40411;-83
2022/08/16 05:53:11;;;;;;;42.28;35.83;;;19.10;99.90;;;;;;5044504;28;39674;-85
2022/08/16 05:55:37;;;;;;;41.83;36.38;;;19.10;99.90;;;;;;5041078;28;39113;-86
2022/08/16 05:58:03;;;;;;;40.95;35.85;;;19.10;99.90;;;;;;5029535;28;39352;-84
2022/08/16 06:00:30;;;;;;;43.22;38.38;;;19.10;99.90;;;;;;5043650;28;39173;-86
2022/08/16 06:02:57;;;;;;;43.75;39.13;;;19.10;99.90;;;;;;5045803;28;39155;-87
2022/08/16 06:05:24;;;;;;;48.03;40.08;;;19.20;99.90;;;;;;5056567;28;38445;-85
2022/08/16 06:07:50;;;;;;;43.38;38.75;;;19.10;99.90;;;;;;5044467;28;38442;-87
2022/08/16 06:10:18;;;;;;;41.92;37.08;;;19.20;99.90;;;;;;5039602;28;40429;-85
2022/08/16 06:12:44;;;;;;;40.88;36.35;;;19.20;99.90;;;;;;5077901;27;37654;-88
2022/08/16 06:15:13;;;;;;;41.33;36.95;;;19.40;99.90;;;;;;5075137;28;38855;-86
2022/08/16 06:17:40;;;;;;;41.10;35.53;;;19.40;99.90;;;;;;5043704;28;38044;-86
2022/08/16 06:20:07;;;;;;;43.63;36.38;;;19.40;99.90;;;;;;5042234;28;39657;-86
2022/08/16 06:22:37;;;;;;;40.53;35.30;;;19.40;99.90;;;;;;5054905;27;39182;-87
2022/08/16 06:25:03;;;;;;;39.72;33.47;;;19.50;99.90;;;;;;5045619;28;39314;-86
2022/08/16 06:27:30;;;;;;;39.72;35.33;;;19.50;99.90;;;;;;5043068;28;47515;-84
2022/08/16 06:29:56;;;;;;;40.20;34.88;;;19.50;99.90;;;;;;5041234;28;38718;-84
2022/08/16 06:32:22;;;;;;;41.03;36.78;;;19.60;99.90;;;;;;5040943;28;38557;-85
2022/08/16 06:34:49;;;;;;;43.53;37.42;;;19.60;99.90;;;;;;5044569;28;37824;-85
2022/08/16 06:37:15;;;;;;;46.78;37.97;;;19.70;99.90;;;;;;5043081;28;38207;-84
2022/08/16 06:39:41;;;;;;;50.95;40.67;;;19.70;99.90;;;;;;5040292;28;39708;-86
2022/08/16 06:42:07;;;;;;;46.90;40.20;;;19.80;99.90;;;;;;5043485;28;40123;-83
2022/08/16 06:44:34;;;;;;;46.88;41.13;;;19.80;99.90;;;;;;5047787;27;36749;-85
2022/08/16 06:47:00;;;;;;;51.53;42.78;;;19.80;99.90;;;;;;5047064;28;38236;-85
2022/08/16 06:49:26;;;;;;;46.33;41.35;;;19.80;99.90;;;;;;5040952;28;39400;-85
2022/08/16 06:51:52;;;;;;;49.08;43.47;;;19.90;99.90;;;;;;5059954;28;38625;-85
2022/08/16 06:54:18;;;;;;;49.00;42.20;;;19.90;99.90;;;;;;5039645;28;38946;-85
2022/08/16 06:56:44;;;;;;;46.40;41.33;;;19.90;99.90;;;;;;5042168;28;38630;-84
2022/08/16 06:59:10;;;;;;;48.72;43.30;;;19.90;99.90;;;;;;5047048;28;39460;-83
2022/08/16 07:01:37;;;;;;;45.78;40.83;;;20.00;99.90;;;;;;5044872;28;40239;-83
2022/08/16 07:04:03;;;;;;;46.60;39.75;;;20.10;99.90;;;;;;5042935;28;39894;-84
2022/08/16 07:06:30;;;;;;;42.80;37.90;;;20.10;99.90;;;;;;5042999;28;37195;-81
2022/08/16 07:08:56;;;;;;;44.22;39.40;;;20.20;99.90;;;;;;5041613;28;39301;-81
2022/08/16 07:11:25;;;;;;;42.60;37.67;;;20.20;99.90;;;;;;5038656;28;38665;-80
2022/08/16 07:13:53;;;;;;;41.47;37.15;;;20.20;99.90;;;;;;5071997;27;38510;-80
2022/08/16 07:16:20;;;;;;;40.08;35.58;;;20.40;99.90;;;;;;5044232;28;39270;-78
2022/08/16 07:18:46;;;;;;;38.22;34.13;;;20.60;99.90;;;;;;5041835;28;37512;-81
2022/08/16 07:21:14;;;;;;;40.25;35.40;;;20.80;99.90;;;;;;5041608;27;39407;-80
2022/08/16 07:23:40;;;;;;;41.50;37.00;;;20.80;99.90;;;;;;5037451;28;37992;-81
2022/08/16 07:26:09;;;;;;;44.70;38.13;;;21.00;99.90;;;;;;5038119;27;37262;-79
2022/08/16 07:28:36;;;;;;;37.03;33.03;;;20.90;99.90;;;;;;5074969;28;39032;-79
2022/08/16 07:31:03;;;;;;;43.17;36.75;;;21.00;99.90;;;;;;5039124;28;40117;-80
2022/08/16 07:33:33;;;;;;;36.40;31.63;;;20.90;99.90;;;;;;5039293;28;38937;-80
2022/08/16 07:35:59;;;;;;;35.85;32.03;;;21.00;99.90;;;;;;5034895;27;39455;-81
2022/08/16 07:38:26;;;;;;;37.58;32.55;;;21.10;99.90;;;;;;5039538;28;38426;-81
2022/08/16 07:40:54;;;;;;;36.88;32.80;;;21.20;99.90;;;;;;5036289;28;39080;-80
2022/08/16 07:43:21;;;;;;;39.70;32.40;;;21.20;99.90;;;;;;5074131;27;37662;-80
2022/08/16 07:45:48;;;;;;;37.90;33.78;;;21.10;99.90;;;;;;5041252;28;37556;-80
2022/08/16 07:48:14;;;;;;;37.58;32.65;;;21.10;99.90;;;;;;5038192;28;39822;-79
2022/08/16 07:50:41;;;;;;;39.15;32.60;;;21.00;99.90;;;;;;5039845;28;38903;-80
2022/08/16 07:53:08;;;;;;;32.35;28.92;;;21.20;99.90;;;;;;5044140;28;37112;-80
2022/08/16 07:55:35;;;;;;;37.08;33.08;;;21.50;99.90;;;;;;5044456;28;38534;-81
2022/08/16 07:58:01;;;;;;;34.95;31.15;;;21.70;99.90;;;;;;5073258;27;40106;-81
2022/08/16 08:00:28;;;;;;;38.50;33.60;;;21.90;99.90;;;;;;5043057;28;47840;-80
2022/08/16 08:02:54;;;;;;;34.20;30.55;;;21.90;99.90;;;;;;5043444;28;38491;-80
2022/08/16 08:05:22;;;;;;;37.63;33.60;;;22.10;99.90;;;;;;5043432;28;36490;-80
2022/08/16 08:07:49;;;;;;;35.75;31.98;;;22.20;99.90;;;;;;5051553;28;37732;-80
2022/08/16 08:10:15;;;;;;;35.33;29.38;;;22.20;99.90;;;;;;5041169;28;38756;-79
2022/08/16 08:12:46;;;;;;;33.20;29.63;;;22.20;99.90;;;;;;5042766;28;39018;-80
2022/08/16 08:15:12;;;;;;;30.98;27.73;;;22.30;99.90;;;;;;5075366;28;38130;-79
2022/08/16 08:17:39;;;;;;;33.55;29.08;;;22.50;99.90;;;;;;5041570;28;37924;-81
2022/08/16 08:20:08;;;;;;;33.75;28.92;;;22.50;99.90;;;;;;5075998;27;38927;-81
2022/08/16 08:22:36;;;;;;;31.00;26.52;;;22.30;99.90;;;;;;5046555;28;34862;-80
2022/08/16 08:25:03;;;;;;;31.33;27.90;;;22.30;99.90;;;;;;5040459;28;37207;-80
2022/08/16 08:27:29;;;;;;;34.22;25.92;;;23.00;99.90;;;;;;5039359;28;38040;-80
2022/08/16 08:29:56;;;;;;;28.25;25.23;;;23.50;99.90;;;;;;5039762;28;39817;-80
2022/08/16 08:32:23;;;;;;;29.67;23.20;;;23.80;99.90;;;;;;5036374;28;38786;-80
2022/08/16 08:34:50;;;;;;;30.45;25.98;;;24.10;99.90;;;;;;5040211;28;38078;-80
2022/08/16 08:37:16;;;;;;;32.13;25.25;;;23.90;99.90;;;;;;5041538;28;38763;-80
2022/08/16 08:39:42;;;;;;;32.67;29.30;;;24.20;99.90;;;;;;5041994;28;40045;-80
2022/08/16 08:42:08;;;;;;;27.70;23.88;;;24.10;99.90;;;;;;5039281;28;39734;-80
2022/08/16 08:44:34;;;;;;;27.95;23.23;;;24.30;99.90;;;;;;5032998;27;36932;-80
2022/08/16 08:47:07;;;;;;;25.27;22.60;;;24.40;99.90;;;;;;5051986;28;39844;-79
2022/08/16 08:49:37;;;;;;;30.10;23.02;;;24.40;99.90;;;;;;5033704;28;48275;-78
2022/08/16 08:52:04;;;;;;;28.27;24.10;;;24.60;99.90;;;;;;5038132;28;37278;-80
2022/08/16 08:54:32;;;;;;;24.48;20.52;;;24.40;99.90;;;;;;5041506;28;36129;-77
2022/08/16 08:56:58;;;;;;;19.05;17.17;;;24.60;99.90;;;;;;5066565;28;37931;-80
2022/08/16 08:59:24;;;;;;;22.33;19.92;;;25.00;99.90;;;;;;5019081;28;38379;-77
2022/08/16 09:01:51;;;;;;;22.80;20.40;;;25.30;99.90;;;;;;5019199;28;37669;-76
2022/08/16 09:04:17;;;;;;;27.45;23.38;;;25.50;99.90;;;;;;5025894;28;36824;-77
2022/08/16 09:06:44;;;;;;;23.33;20.83;;;25.50;99.90;;;;;;5016811;28;38393;-77
2022/08/16 09:09:10;;;;;;;24.80;21.35;;;25.20;99.90;;;;;;5019609;28;37438;-76
2022/08/16 09:11:37;;;;;;;22.45;19.10;;;24.80;99.90;;;;;;5024538;28;38323;-77
2022/08/16 09:14:03;;;;;;;20.05;17.83;;;24.70;99.90;;;;;;5020009;28;37709;-77
2022/08/16 09:16:31;;;;;;;22.42;20.08;;;24.90;99.90;;;;;;5022348;28;38553;-77
2022/08/16 09:18:58;;;;;;;21.75;18.63;;;25.00;99.90;;;;;;5027976;28;39488;-77
2022/08/16 09:21:24;;;;;;;25.92;20.83;;;25.10;99.90;;;;;;5022761;28;38602;-77
2022/08/16 09:23:51;;;;;;;23.80;20.73;;;25.20;99.90;;;;;;5027899;28;36270;-78
2022/08/16 09:26:17;;;;;;;22.52;20.17;;;25.50;99.90;;;;;;5042324;28;37724;-78
2022/08/16 09:28:44;;;;;;;21.73;19.60;;;25.40;99.90;;;;;;5023428;28;38650;-77
2022/08/16 09:31:14;;;;;;;22.35;19.83;;;25.30;99.90;;;;;;5030077;28;37410;-77
2022/08/16 09:33:41;;;;;;;25.13;19.08;;;25.50;99.90;;;;;;5027171;28;38375;-78
2022/08/16 09:36:09;;;;;;;23.58;21.23;;;25.40;99.90;;;;;;5025806;28;38853;-78
2022/08/16 09:38:37;;;;;;;24.35;21.02;;;25.20;99.90;;;;;;5021935;28;38546;-77
2022/08/16 09:41:06;;;;;;;22.20;19.92;;;25.40;99.90;;;;;;5039631;28;36946;-77
2022/08/16 09:43:33;;;;;;;21.30;19.00;;;25.60;99.90;;;;;;5026613;28;37815;-77
2022/08/16 09:46:01;;;;;;;24.50;21.65;;;25.90;99.90;;;;;;5016521;28;38332;-77
2022/08/16 09:48:27;;;;;;;23.60;21.08;;;26.00;99.90;;;;;;5045042;27;48483;-77
2022/08/16 09:50:54;;;;;;;19.27;17.27;;;26.00;99.90;;;;;;5044231;28;37380;-77
2022/08/16 09:53:22;;;;;;;22.17;19.63;;;25.50;99.90;;;;;;5039291;27;37590;-77
2022/08/16 09:55:51;;;;;;;21.55;19.38;;;25.70;99.90;;;;;;5039071;28;38559;-77
2022/08/16 09:58:23;;;;;;;23.50;19.88;;;25.60;99.90;;;;;;5046115;28;38357;-77
2022/08/16 10:00:50;;;;;;;19.45;17.23;;;25.70;99.90;;;;;;5048224;28;40599;-76
2022/08/16 10:03:17;;;;;;;27.60;20.30;;;25.30;99.90;;;;;;5044897;27;38697;-77
2022/08/16 10:05:44;;;;;;;19.88;17.88;;;25.40;99.90;;;;;;5039085;28;40021;-76
2022/08/16 10:08:11;;;;;;;23.67;21.23;;;25.40;99.90;;;;;;5042441;28;38709;-77
2022/08/16 10:13:10;;;;;;;21.65;19.45;;;25.40;99.90;;;;;;5040639;28;39612;-76
2022/08/16 10:13:28;;;;;;;20.70;18.65;;;25.30;99.90;;;;;;5039347;28;48593;-76
2022/08/16 10:15:58;;;;;;;21.45;17.80;;;25.50;99.90;;;;;;5043647;28;39499;-77
2022/08/16 10:18:29;;;;;;;22.45;17.33;;;25.70;99.90;;;;;;5042039;28;38610;-77
2022/08/16 10:20:58;;;;;;;22.77;19.48;;;25.70;99.90;;;;;;5040479;27;38319;-77
2022/08/16 10:23:25;;;;;;;20.88;18.77;;;25.70;99.90;;;;;;5029803;28;38822;-77
2022/08/16 10:25:51;;;;;;;21.10;18.08;;;25.60;99.90;;;;;;5032416;28;38916;-76
2022/08/16 10:28:17;;;;;;;21.90;18.75;;;25.60;99.90;;;;;;5031756;28;38903;-77
2022/08/16 10:30:44;;;;;;;21.98;19.45;;;25.60;99.90;;;;;;5051006;28;38922;-77
2022/08/16 10:33:12;;;;;;;16.70;14.80;;;25.50;99.90;;;;;;5049168;28;38288;-77
2022/08/16 10:35:39;;;;;;;25.45;19.48;;;25.60;99.90;;;;;;5041359;28;37370;-77
2022/08/16 10:38:06;;;;;;;25.70;21.05;;;25.20;99.90;;;;;;5042351;28;41695;-77
2022/08/16 10:40:32;;;;;;;21.08;18.92;;;25.00;99.90;;;;;;5037257;28;40219;-77
2022/08/16 10:43:01;;;;;;;17.83;15.85;;;25.00;99.90;;;;;;5041240;27;37360;-77
2022/08/16 10:45:29;;;;;;;23.60;19.48;;;25.30;99.90;;;;;;5045253;28;47296;-77
2022/08/16 10:47:56;;;;;;;18.65;16.65;;;25.50;99.90;;;;;;5050345;28;39391;-77
2022/08/16 10:50:22;;;;;;;24.20;17.50;;;25.70;99.90;;;;;;5051723;28;38306;-77
2022/08/16 10:52:48;;;;;;;24.45;19.38;;;25.60;99.90;;;;;;5052023;27;37177;-78
2022/08/16 10:55:14;;;;;;;17.75;15.77;;;25.50;99.90;;;;;;5052791;27;39013;-77
2022/08/16 10:57:41;;;;;;;22.00;18.70;;;25.60;99.90;;;;;;5050586;28;37255;-78
2022/08/16 11:00:11;;;;;;;21.88;19.27;;;25.90;99.90;;;;;;5048905;27;38376;-77
2022/08/16 11:02:38;;;;;;;25.20;19.98;;;25.90;99.90;;;;;;5046509;28;38364;-76
2022/08/16 11:05:08;;;;;;;20.38;18.27;;;26.00;99.90;;;;;;5046900;27;39152;-77
2022/08/16 11:07:34;;;;;;;20.70;18.38;;;26.40;99.90;;;;;;5049750;28;38299;-77
2022/08/16 11:10:01;;;;;;;20.02;15.35;;;26.70;99.90;;;;;;5049423;28;40018;-77
2022/08/16 11:12:27;;;;;;;22.48;20.05;;;27.00;99.90;;;;;;5046903;28;38193;-77
2022/08/16 11:14:55;;;;;;;17.95;16.20;;;27.20;99.90;;;;;;5050620;28;39361;-76
2022/08/16 11:17:21;;;;;;;19.98;15.88;;;27.40;99.90;;;;;;5055667;28;38476;-78
2022/08/16 11:19:48;;;;;;;19.70;16.98;;;27.60;99.90;;;;;;5047262;27;38807;-78
2022/08/16 11:22:14;;;;;;;14.95;13.45;;;27.70;99.90;;;;;;5081691;27;41360;-78
2022/08/16 11:24:43;;;;;;;18.27;14.35;;;27.40;99.90;;;;;;5046280;28;38907;-78
2022/08/16 11:27:16;;;;;;;16.63;14.05;;;27.10;99.90;;;;;;5074280;27;38852;-76
2022/08/16 11:29:42;;;;;;;17.13;15.30;;;26.70;99.90;;;;;;5048895;28;37788;-75
2022/08/16 11:32:09;;;;;;;14.43;12.73;;;26.50;99.90;;;;;;5049453;27;38192;-75
2022/08/16 11:34:35;;;;;;;17.70;15.90;;;26.50;99.90;;;;;;5049797;27;39740;-75
2022/08/16 11:37:02;;;;;;;15.30;13.25;;;26.30;99.90;;;;;;5030437;28;39698;-76
2022/08/16 11:39:29;;;;;;;15.30;12.02;;;26.20;99.90;;;;;;5023682;28;47129;-75
2022/08/16 11:41:56;;;;;;;12.10;10.88;;;26.40;99.90;;;;;;5019243;28;38296;-76
2022/08/16 11:44:23;;;;;;;15.30;13.20;;;26.60;99.90;;;;;;5022717;28;38475;-76
2022/08/16 11:46:49;;;;;;;15.80;14.05;;;26.60;99.90;;;;;;5024306;28;39576;-76
2022/08/16 11:49:16;;;;;;;13.18;11.88;;;26.40;99.90;;;;;;5024650;28;39582;-76
2022/08/16 11:51:43;;;;;;;17.75;15.95;;;26.20;99.90;;;;;;5021002;28;36798;-77
2022/08/16 11:54:10;;;;;;;18.15;14.48;;;26.20;99.90;;;;;;5022196;28;39367;-77
2022/08/16 11:56:36;;;;;;;15.80;14.20;;;26.10;99.90;;;;;;5027521;28;38564;-76
2022/08/16 11:59:03;;;;;;;17.80;14.48;;;26.10;99.90;;;;;;5017860;28;38743;-76
2022/08/16 12:01:29;;;;;;;20.42;15.10;;;26.00;99.90;;;;;;5018370;28;37257;-78
2022/08/16 12:03:56;;;;;;;18.98;14.02;;;25.60;99.90;;;;;;5051235;27;39392;-77
2022/08/16 12:06:22;;;;;;;13.90;12.35;;;25.60;99.90;;;;;;5022810;28;38450;-77
2022/08/16 12:08:48;;;;;;;16.27;14.00;;;25.70;99.90;;;;;;5024060;28;39079;-76
2022/08/16 12:11:15;;;;;;;15.00;11.40;;;26.10;99.90;;;;;;5021898;28;38816;-76
2022/08/16 12:13:43;;;;;;;16.02;14.10;;;26.20;99.90;;;;;;5020528;28;39421;-77
2022/08/16 12:16:09;;;;;;;11.30;9.90;;;26.30;99.90;;;;;;5038920;28;39609;-76
2022/08/16 12:18:36;;;;;;;13.77;12.35;;;26.40;99.90;;;;;;5028500;28;38241;-77
2022/08/16 12:21:06;;;;;;;16.67;13.77;;;26.60;99.90;;;;;;5025903;28;38380;-78
2022/08/16 12:23:33;;;;;;;13.93;11.57;;;26.70;99.90;;;;;;5023062;28;20046;-77
2022/08/16 12:25:59;;;;;;;16.45;12.50;;;26.70;99.90;;;;;;5040746;28;39984;-77
2022/08/16 12:28:25;;;;;;;14.90;10.57;;;27.10;99.90;;;;;;5021263;28;39191;-77